createdAt,value
2019-02-04T00:01:31.968Z,10.40
2019-02-04T00:04:01.388Z,8.93
2019-02-04T00:06:29.330Z,8.20
2019-02-04T00:08:57.253Z,9.73
2019-02-04T00:11:26.059Z,10.63
2019-02-04T00:14:03.637Z,9.85
2019-02-04T00:16:40.655Z,9.40
2019-02-04T00:19:02.449Z,10.28
2019-02-04T00:21:32.534Z,9.40
2019-02-04T00:24:02.767Z,9.00
2019-02-04T00:26:30.966Z,9.60
2019-02-04T00:29:00.957Z,10.00
2019-02-04T00:31:30.116Z,9.48
2019-02-04T00:33:59.500Z,8.70
2019-02-04T00:36:29.121Z,10.15
2019-02-04T00:38:57.073Z,9.35
2019-02-04T00:41:24.972Z,9.15
2019-02-04T00:43:59.453Z,9.20
2019-02-04T00:46:27.746Z,9.18
2019-02-04T00:48:56.014Z,9.68
2019-02-04T00:51:25.971Z,8.85
2019-02-04T00:53:56.364Z,11.30
2019-02-04T00:56:24.223Z,8.75
2019-02-04T00:58:52.545Z,9.35
2019-02-04T01:01:20.434Z,9.45
2019-02-04T01:03:48.406Z,10.32
2019-02-04T01:06:16.598Z,10.85
2019-02-04T01:08:44.845Z,8.88
2019-02-04T01:11:15.020Z,8.70
2019-02-04T01:13:43.414Z,9.45
2019-02-04T01:16:11.380Z,9.23
2019-02-04T01:18:39.307Z,9.50
2019-02-04T01:21:09.217Z,12.00
2019-02-04T01:23:38.236Z,11.70
2019-02-04T01:26:06.326Z,9.93
2019-02-04T01:28:37.479Z,9.45
2019-02-04T01:31:10.907Z,9.85
2019-02-04T01:33:38.793Z,10.28
2019-02-04T01:36:07.416Z,10.10
2019-02-04T01:38:38.598Z,11.80
2019-02-04T01:41:08.199Z,11.15
2019-02-04T01:43:36.184Z,11.45
2019-02-04T01:46:05.405Z,11.20
2019-02-04T01:48:34.309Z,11.18
2019-02-04T01:51:02.259Z,11.20
2019-02-04T01:53:30.211Z,11.50
2019-02-04T01:55:59.844Z,11.70
2019-02-04T01:58:29.284Z,12.88
2019-02-04T02:00:57.151Z,12.68
2019-02-04T02:03:25.125Z,12.43
2019-02-04T02:05:54.605Z,12.30
2019-02-04T02:08:23.697Z,11.70
2019-02-04T02:10:51.627Z,12.90
2019-02-04T02:13:21.670Z,12.40
2019-02-04T02:15:49.608Z,12.98
2019-02-04T02:18:18.926Z,13.65
2019-02-04T02:20:48.683Z,13.08
2019-02-04T02:23:16.610Z,13.72
2019-02-04T02:25:44.717Z,13.58
2019-02-04T02:28:15.376Z,13.68
2019-02-04T02:30:42.542Z,12.95
2019-02-04T02:33:10.433Z,14.47
2019-02-04T02:35:38.813Z,14.78
2019-02-04T02:38:06.713Z,13.08
2019-02-04T02:40:36.926Z,13.18
2019-02-04T02:43:07.113Z,13.18
2019-02-04T02:45:36.778Z,13.25
2019-02-04T02:48:07.024Z,13.18
2019-02-04T02:50:37.647Z,13.45
2019-02-04T02:53:06.297Z,12.75
2019-02-04T02:55:35.368Z,14.78
2019-02-04T02:58:04.283Z,15.20
2019-02-04T03:00:34.492Z,14.50
2019-02-04T03:03:02.422Z,14.87
2019-02-04T03:05:33.177Z,15.10
2019-02-04T03:08:01.009Z,14.00
2019-02-04T03:10:31.802Z,16.48
2019-02-04T03:13:02.363Z,16.42
2019-02-04T03:15:33.656Z,15.40
2019-02-04T03:18:01.789Z,16.32
2019-02-04T03:20:32.452Z,17.48
2019-02-04T03:23:02.586Z,17.17
2019-02-04T03:25:41.251Z,21.25
2019-02-04T03:28:11.752Z,19.32
2019-02-04T03:30:41.896Z,20.70
2019-02-04T03:33:14.677Z,20.55
2019-02-04T03:35:44.508Z,20.20
2019-02-04T03:38:14.493Z,18.95
2019-02-04T03:40:43.801Z,18.85
2019-02-04T03:43:12.221Z,19.55
2019-02-04T03:45:41.042Z,21.30
2019-02-04T03:48:16.299Z,18.73
2019-02-04T03:50:44.218Z,20.75
2019-02-04T03:53:14.511Z,19.95
2019-02-04T03:55:44.762Z,20.62
2019-02-04T03:58:13.687Z,18.65
2019-02-04T04:00:43.689Z,19.23
2019-02-04T04:03:11.592Z,17.65
2019-02-04T04:05:40.048Z,16.95
2019-02-04T04:08:09.198Z,17.48
2019-02-04T04:10:37.179Z,16.95
2019-02-04T04:13:12.419Z,15.85
2019-02-04T04:15:41.914Z,16.85
2019-02-04T04:18:16.056Z,16.75
2019-02-04T04:20:40.099Z,17.55
2019-02-04T04:23:12.784Z,16.82
2019-02-04T04:25:42.759Z,16.32
2019-02-04T04:28:10.702Z,16.60
2019-02-04T04:30:42.177Z,18.50
2019-02-04T04:33:11.102Z,18.42
2019-02-04T04:35:40.572Z,18.82
2019-02-04T04:38:08.786Z,16.70
2019-02-04T04:40:37.082Z,17.73
2019-02-04T04:43:05.015Z,17.75
2019-02-04T04:45:34.218Z,18.02
2019-02-04T04:48:05.263Z,16.23
2019-02-04T04:50:33.135Z,16.70
2019-02-04T04:53:01.049Z,16.50
2019-02-04T04:55:28.988Z,17.00
2019-02-04T04:57:59.699Z,16.77
2019-02-04T05:00:28.592Z,14.73
2019-02-04T05:02:57.953Z,14.73
2019-02-04T05:05:28.237Z,15.98
2019-02-04T05:07:57.432Z,16.17
2019-02-04T05:10:26.435Z,16.00
2019-02-04T05:12:54.317Z,15.93
2019-02-04T05:15:24.097Z,15.70
2019-02-04T05:17:52.660Z,15.35
2019-02-04T05:20:21.230Z,17.67
2019-02-04T05:22:49.167Z,15.23
2019-02-04T05:25:17.229Z,14.40
2019-02-04T05:27:45.185Z,16.30
2019-02-04T05:30:14.349Z,15.53
2019-02-04T05:32:44.992Z,15.65
2019-02-04T05:35:13.241Z,16.75
2019-02-04T05:37:43.170Z,15.72
2019-02-04T05:40:12.392Z,15.93
2019-02-04T05:42:45.612Z,16.00
2019-02-04T05:45:15.318Z,17.92
2019-02-04T05:47:48.067Z,16.45
2019-02-04T05:50:18.018Z,16.95
2019-02-04T05:52:46.337Z,16.02
2019-02-04T05:55:36.590Z,17.15
2019-02-04T05:58:05.811Z,13.88
2019-02-04T06:00:46.035Z,16.17
2019-02-04T06:03:13.985Z,16.73
2019-02-04T06:05:42.242Z,14.78
2019-02-04T06:08:11.791Z,15.50
2019-02-04T06:10:40.213Z,15.18
2019-02-04T06:13:11.508Z,17.20
2019-02-04T06:15:39.349Z,15.05
2019-02-04T06:18:07.334Z,13.95
2019-02-04T06:20:35.546Z,14.20
2019-02-04T06:23:03.358Z,13.85
2019-02-04T06:25:31.369Z,14.23
2019-02-04T06:27:59.215Z,14.20
2019-02-04T06:30:27.165Z,16.65
2019-02-04T06:32:55.004Z,14.95
2019-02-04T06:35:22.827Z,13.70
2019-02-04T06:37:50.657Z,14.10
2019-02-04T06:40:18.570Z,14.38
2019-02-04T06:42:46.418Z,15.72
2019-02-04T06:45:14.429Z,13.43
2019-02-04T06:47:42.258Z,14.58
2019-02-04T06:50:11.096Z,14.63
2019-02-04T06:52:39.292Z,13.90
2019-02-04T06:55:08.732Z,14.87
2019-02-04T06:57:36.565Z,14.78
2019-02-04T07:00:05.270Z,14.58
2019-02-04T07:02:33.342Z,14.55
2019-02-04T07:05:01.142Z,15.68
2019-02-04T07:07:28.959Z,14.20
2019-02-04T07:09:58.112Z,14.25
2019-02-04T07:12:25.938Z,14.50
2019-02-04T07:14:53.782Z,12.13
2019-02-04T07:17:21.613Z,13.53
2019-02-04T07:19:49.467Z,13.60
2019-02-04T07:22:17.326Z,12.75
2019-02-04T07:24:45.210Z,13.72
2019-02-04T07:27:13.063Z,13.55
2019-02-04T07:29:40.969Z,13.18
2019-02-04T07:32:10.763Z,13.98
2019-02-04T07:34:38.349Z,13.20
2019-02-04T07:37:06.260Z,12.25
2019-02-04T07:39:34.435Z,12.07
2019-02-04T07:42:02.793Z,11.22
2019-02-04T07:44:30.646Z,11.33
2019-02-04T07:46:58.467Z,13.10
2019-02-04T07:49:35.087Z,10.75
2019-02-04T07:51:55.887Z,10.88
2019-02-04T07:54:23.792Z,11.08
2019-02-04T07:56:51.607Z,11.15
2019-02-04T07:59:19.726Z,11.50
2019-02-04T08:01:47.545Z,10.82
2019-02-04T08:04:15.380Z,10.38
2019-02-04T08:06:43.210Z,9.55
2019-02-04T08:09:11.346Z,10.25
2019-02-04T08:11:39.305Z,10.38
2019-02-04T08:14:07.522Z,8.65
2019-02-04T08:16:35.364Z,8.85
2019-02-04T08:19:03.310Z,10.43
2019-02-04T08:21:31.145Z,9.35
2019-02-04T08:23:59.373Z,9.40
2019-02-04T08:26:27.526Z,8.65
2019-02-04T08:28:55.801Z,8.95
2019-02-04T08:31:23.906Z,8.03
2019-02-04T08:33:51.739Z,9.00
2019-02-04T08:36:19.604Z,8.55
2019-02-04T08:38:47.433Z,7.67
2019-02-04T08:41:15.425Z,8.05
2019-02-04T08:43:43.337Z,8.38
2019-02-04T08:46:11.169Z,8.88
2019-02-04T08:48:39.657Z,8.03
2019-02-04T08:51:07.485Z,7.55
2019-02-04T08:53:35.380Z,8.40
2019-02-04T08:56:03.266Z,7.33
2019-02-04T08:58:31.201Z,7.95
2019-02-04T09:00:59.026Z,8.35
2019-02-04T09:03:26.956Z,7.42
2019-02-04T09:05:55.133Z,6.90
2019-02-04T09:08:22.975Z,8.28
2019-02-04T09:10:50.822Z,7.08
2019-02-04T09:13:18.731Z,7.30
2019-02-04T09:15:46.583Z,7.30
2019-02-04T09:18:14.430Z,6.78
2019-02-04T09:20:42.587Z,7.50
2019-02-04T09:23:10.458Z,7.30
2019-02-04T09:25:38.434Z,6.47
2019-02-04T09:28:06.252Z,8.18
2019-02-04T09:30:34.082Z,6.65
2019-02-04T09:33:01.883Z,7.00
2019-02-04T09:35:29.826Z,7.33
2019-02-04T09:37:57.628Z,6.00
2019-02-04T09:40:27.467Z,6.55
2019-02-04T09:42:55.829Z,6.80
2019-02-04T09:45:27.650Z,7.20
2019-02-04T09:47:54.115Z,6.53
2019-02-04T09:50:22.322Z,6.10
2019-02-04T09:52:50.219Z,6.55
2019-02-04T09:55:19.479Z,6.45
2019-02-04T09:57:47.670Z,6.80
2019-02-04T10:00:17.387Z,6.15
2019-02-04T10:02:47.021Z,5.33
2019-02-04T10:05:15.471Z,6.70
2019-02-04T10:07:44.522Z,5.67
2019-02-04T10:10:13.753Z,5.47
2019-02-04T10:12:41.598Z,5.60
2019-02-04T10:15:10.902Z,5.12
2019-02-04T10:17:38.780Z,6.30
2019-02-04T10:20:06.978Z,6.20
2019-02-04T10:22:34.895Z,6.35
2019-02-04T10:25:02.785Z,6.30
2019-02-04T10:27:31.239Z,6.05
2019-02-04T10:29:59.624Z,5.87
2019-02-04T10:32:27.579Z,6.35
2019-02-04T10:34:55.568Z,5.83
2019-02-04T10:37:23.553Z,6.10
2019-02-04T10:39:51.489Z,6.28
2019-02-04T10:42:19.395Z,6.37
2019-02-04T10:44:47.286Z,6.20
2019-02-04T10:47:15.229Z,5.87
2019-02-04T10:49:43.120Z,6.28
2019-02-04T10:52:11.052Z,5.60
2019-02-04T10:54:38.924Z,6.00
2019-02-04T10:57:06.815Z,6.62
2019-02-04T10:59:35.060Z,6.42
2019-02-04T11:02:03.173Z,5.30
2019-02-04T11:04:31.012Z,5.45
2019-02-04T11:06:58.874Z,6.25
2019-02-04T11:09:26.860Z,6.60
2019-02-04T11:11:56.782Z,5.85
2019-02-04T11:14:24.674Z,6.75
2019-02-04T11:16:52.954Z,5.70
2019-02-04T11:19:20.906Z,5.80
2019-02-04T11:21:48.789Z,6.12
2019-02-04T11:24:16.688Z,7.10
2019-02-04T11:26:44.597Z,5.90
2019-02-04T11:29:12.467Z,6.35
2019-02-04T11:31:40.918Z,5.83
2019-02-04T11:34:08.844Z,5.83
2019-02-04T11:36:36.733Z,6.42
2019-02-04T11:39:06.653Z,5.30
2019-02-04T11:41:34.504Z,6.62
2019-02-04T11:44:02.397Z,6.67
2019-02-04T11:46:30.243Z,5.85
2019-02-04T11:48:58.197Z,6.30
2019-02-04T11:51:26.008Z,6.00
2019-02-04T11:53:54.149Z,6.28
2019-02-04T11:56:21.964Z,5.45
2019-02-04T11:58:49.901Z,6.00
2019-02-04T12:01:17.769Z,5.75
2019-02-04T12:03:45.629Z,5.28
2019-02-04T12:06:13.507Z,5.30
2019-02-04T12:08:41.335Z,5.78
2019-02-04T12:11:16.457Z,5.40
2019-02-04T12:13:44.267Z,4.92
2019-02-04T12:16:12.130Z,5.17
2019-02-04T12:18:40.271Z,5.33
2019-02-04T12:21:08.141Z,5.45
2019-02-04T12:23:35.978Z,5.20
2019-02-04T12:26:04.293Z,5.30
2019-02-04T12:28:32.134Z,6.12
2019-02-04T12:30:59.997Z,5.17
2019-02-04T12:33:27.839Z,5.55
2019-02-04T12:35:56.163Z,5.30
2019-02-04T12:38:24.006Z,4.90
2019-02-04T12:40:51.875Z,5.50
2019-02-04T12:43:21.307Z,4.42
2019-02-04T12:45:49.329Z,4.25
2019-02-04T12:48:18.284Z,5.50
2019-02-04T12:50:46.145Z,4.90
2019-02-04T12:53:14.057Z,5.55
2019-02-04T12:55:41.924Z,4.97
2019-02-04T12:58:09.836Z,4.67
2019-02-04T19:33:56.713Z,3.80
2019-02-04T19:36:25.254Z,3.30
2019-02-04T19:38:53.166Z,3.47
2019-02-04T19:41:21.269Z,3.83
2019-02-04T19:43:49.226Z,3.80
2019-02-04T19:48:51.275Z,3.80
2019-02-04T19:51:21.024Z,3.25
2019-02-04T19:53:48.907Z,3.83
2019-02-04T19:58:52.067Z,3.47
2019-02-04T20:01:21.756Z,3.58
2019-02-04T20:03:49.693Z,3.75
2019-02-04T20:06:36.634Z,3.45
2019-02-04T20:12:00.782Z,3.27
2019-02-04T20:14:28.829Z,3.65
2019-02-04T20:16:56.827Z,3.52
2019-02-04T20:19:24.859Z,3.15
2019-02-04T20:21:52.782Z,4.00
2019-02-04T20:24:20.801Z,3.67
2019-02-04T20:26:51.487Z,3.95
2019-02-04T20:29:19.523Z,3.47
2019-02-04T20:31:47.485Z,3.02
2019-02-04T20:34:15.606Z,3.10
2019-02-04T20:36:43.594Z,2.60
2019-02-04T20:39:11.564Z,3.60
2019-02-04T20:41:39.528Z,3.40
2019-02-04T20:44:27.396Z,3.47
2019-02-04T20:50:00.782Z,3.30
2019-02-04T20:52:28.644Z,2.75
2019-02-04T20:54:56.699Z,3.17
2019-02-04T20:57:24.640Z,2.70
2019-02-04T20:59:52.623Z,3.58
2019-02-04T21:02:20.626Z,3.08
2019-02-04T21:07:22.376Z,2.83
2019-02-04T21:12:29.267Z,2.83
2019-02-04T21:14:57.159Z,2.80
2019-02-04T21:17:25.127Z,2.75
2019-02-04T21:20:12.137Z,2.90
2019-02-04T21:25:47.674Z,2.58
2019-02-04T21:28:16.075Z,2.67
2019-02-04T21:33:18.029Z,3.50
2019-02-04T21:35:45.990Z,3.30
2019-02-04T21:38:13.969Z,2.50
2019-02-04T21:40:42.050Z,2.58
2019-02-04T21:43:30.010Z,2.40
2019-02-04T21:45:57.916Z,3.15
2019-02-04T21:51:20.303Z,2.98
2019-02-04T21:53:48.329Z,2.70
2019-02-04T21:56:16.341Z,3.27
2019-02-04T22:04:30.677Z,2.87
2019-02-04T22:06:58.965Z,2.98
2019-02-04T22:09:45.810Z,3.22
2019-02-04T22:12:13.757Z,3.58
2019-02-04T22:15:00.687Z,4.25
2019-02-04T22:17:28.957Z,3.00
2019-02-04T22:19:56.961Z,2.90
2019-02-04T22:22:28.846Z,2.90
2019-02-04T22:24:56.808Z,3.25
2019-02-04T22:27:26.493Z,2.67
2019-02-04T22:29:54.415Z,3.20
2019-02-04T22:32:22.540Z,3.37
2019-02-04T22:34:50.560Z,3.52
2019-02-04T22:37:18.522Z,3.67
2019-02-04T22:39:46.490Z,3.58
2019-02-04T22:42:14.456Z,3.50
2019-02-04T22:44:42.414Z,3.60
2019-02-04T22:47:14.989Z,4.15
2019-02-04T22:50:01.978Z,3.92
2019-02-04T22:52:29.907Z,3.90
2019-02-04T22:55:17.116Z,3.42
2019-02-04T22:57:47.202Z,3.52
2019-02-04T23:00:53.117Z,4.17
2019-02-04T23:06:16.122Z,3.60
2019-02-04T23:08:46.417Z,4.30
2019-02-04T23:11:14.305Z,4.83
2019-02-04T23:16:30.864Z,4.08
2019-02-04T23:18:58.792Z,3.50
2019-02-04T23:21:26.803Z,4.17
2019-02-04T23:27:15.670Z,4.00
2019-02-04T23:29:32.153Z,3.90
2019-02-04T23:34:48.905Z,4.60
2019-02-04T23:37:16.811Z,3.70
2019-02-04T23:39:44.715Z,4.17
2019-02-04T23:42:14.348Z,3.95
2019-02-04T23:44:42.366Z,4.05
2019-02-04T23:47:10.242Z,4.00
2019-02-04T23:49:38.230Z,3.90
2019-02-04T23:52:06.179Z,4.92
2019-02-04T23:54:36.641Z,3.65
2019-02-04T23:57:04.618Z,4.90
2019-02-04T23:59:32.582Z,4.10
